Kvitbjoern — LM9158 — position and weather

sailwx.info

Track history (hours):
 
Tides and Currents Weather Stations Pressure Air Temp Water Temp Dewpoint Dewpoint Depression Visibility Wind Speed Wind Dir Waves Ship Positions

Kvitbjoern

Last reported at 2015-Jul-01 20:30 UTC. Time now 2015-Jul-02 05:21 UTC.
Position N 66°22' E 012°22'.

Length 10 m.

Type: Fishing. MMSI: 257454420.

Date/timePositionNaut miles runAvg speedWind from/ knotsBaromVisibWave heightAir tempDewpointWater temp
2015-Jul-01 20:30N 66°22' E 012°22'2 2.0
2015-Jul-01 19:33N 66°24' E 012°21'1 0.6
2015-Jul-01 18:32N 66°25' E 012°22'2 2.0
2015-Jul-01 17:21N 66°27' E 012°19'0 0.1
2015-Jul-01 14:20N 66°26' E 012°19'1 1.7
2015-Jul-01 13:32N 66°25' E 012°22'1 0.6
2015-Jul-01 12:17N 66°25' E 012°24'2 2.1
2015-Jul-01 11:33N 66°23' E 012°24'1 1.3
2015-Jul-01 10:33N 66°22' E 012°22'0 0.0
2015-Jun-30 12:26N 66°22' E 012°21'0 0.0
2015-Jun-30 11:24N 66°22' E 012°21'3 2.9
2015-Jun-30 10:26N 66°21' E 012°27'0 0.4
2015-Jun-30 09:32N 66°20' E 012°27'3 0.4
2015-Jun-30 02:33N 66°22' E 012°21'  
2015-Jun-27 20:11N 66°22' E 012°21'3 4.4
2015-Jun-27 19:33N 66°21' E 012°28'3 2.2
2015-Jun-27 18:20N 66°19' E 012°22'1 1.0
2015-Jun-27 17:28N 66°20' E 012°21'1 0.4
2015-Jun-27 14:33N 66°21' E 012°22'  
Track history (hours):
 
Tides and Currents Weather Stations Pressure Air Temp Water Temp Dewpoint Dewpoint Depression Visibility Wind Speed Wind Dir Waves Ship Positions

Kvitbjoern

Last reported at 2015-Jul-01 20:30 UTC. Time now 2015-Jul-02 05:21 UTC.
Position N 66°22' E 012°22'.

Length 10 m.

Type: Fishing. MMSI: 257454420.

Date/timePositionNaut miles runAvg speedWind from/ knotsBaromVisibWave heightAir tempDewpointWater temp
2015-Jul-01 20:30N 66°22' E 012°22'2 2.0
2015-Jul-01 19:33N 66°24' E 012°21'1 0.6
2015-Jul-01 18:32N 66°25' E 012°22'2 2.0
2015-Jul-01 17:21N 66°27' E 012°19'0 0.1
2015-Jul-01 14:20N 66°26' E 012°19'1 1.7
2015-Jul-01 13:32N 66°25' E 012°22'1 0.6
2015-Jul-01 12:17N 66°25' E 012°24'2 2.1
2015-Jul-01 11:33N 66°23' E 012°24'1 1.3
2015-Jul-01 10:33N 66°22' E 012°22'0 0.0
2015-Jun-30 12:26N 66°22' E 012°21'0 0.0
2015-Jun-30 11:24N 66°22' E 012°21'3 2.9
2015-Jun-30 10:26N 66°21' E 012°27'0 0.4
2015-Jun-30 09:32N 66°20' E 012°27'3 0.4
2015-Jun-30 02:33N 66°22' E 012°21'  
2015-Jun-27 20:11N 66°22' E 012°21'3 4.4
2015-Jun-27 19:33N 66°21' E 012°28'3 2.2
2015-Jun-27 18:20N 66°19' E 012°22'1 1.0
2015-Jun-27 17:28N 66°20' E 012°21'1 0.4
2015-Jun-27 14:33N 66°21' E 012°22'  

Dump ship's entire track history